LKPK weather

Písek UL
Písek, South Bohemian Region, Czech Republic

Public forecast

Using degrees Celsius for public forecast. Weather courtesy of forecast.io.

Closest aviation weather report (METAR) to Písek UL

Closest report is Plzeň-Líně Airport, 38.4 nm (71.2 km) WNW. Retrieved 2020/04/09 23:00 UTC (22 minutes ago):

LKLN 092300Z AUTO VRB01KT 9999 BKN098 11/05 Q1025

Closest aviation forecast (TAF) to Písek UL

Closest forecast is Václav Havel Airport Prague, 46.1 nm (85.3 km) N. Retrieved 2020/04/09 18:06 UTC (5 hours ago):

TAF LKPR 091700Z 0918/1100 01008KT CAVOK TEMPO 0918/0920 35016KT